Latest Weather Observations for Mardie

IDW60801

Issued at 1:32 pm WST Sunday 14 February 2016 (issued every 30 minutes, with the page automatically refreshed every 10 minutes)

About weather observations | Map of weather stations | Latest weather observations for WA | Other Formats
Station Details ID: 005008 Name: MARDIE Lat: -21.19 Lon: 115.98 Height: 11.0 m
Data from the previous 72 hours. | See also: Recent months at Mardie
Date/Time
WST
Temp
°C
App
Temp
°C
Dew
Point
Rel
Hum
%
Delta-T
°C
Wind Press
QNH
hPa
Press
MSL
hPa
Rain
since 9 am
mm
Dir
 
Spd
km/h
Gust
km/h
Spd
kts
Gust
kts
14/01:30pm 33.2 35.9 22.9 54 7.1 NNW 13 22 7 12 1007.6 1007.5 0.0
14/01:00pm 32.7 35.6 23.1 57 6.6 N 13 24 7 13 1007.8 1007.7 0.0
14/12:30pm 33.1 36.1 23.4 56 6.7 N 13 22 7 12 1008.1 1008.0 0.0
14/12:00pm 33.0 36.0 23.3 56 6.7 N 13 20 7 11 1008.4 1008.3 0.0
14/11:30am 32.7 36.2 23.6 58 6.3 NNW 11 20 6 11 1008.7 1008.6 0.0
14/11:00am 32.2 35.6 24.0 62 5.7 NNW 13 22 7 12 1008.9 1008.8 0.0
14/10:30am 32.1 36.0 24.2 63 5.5 N 11 19 6 10 1009.1 1009.0 0.0
14/10:00am 32.0 36.5 24.6 65 5.2 NNE 9 19 5 10 1009.3 1009.2 0.0
14/09:30am 31.1 35.7 24.7 68 4.5 N 9 13 5 7 1009.2 1009.1 0.0
14/09:00am 29.9 35.2 25.0 75 3.4 NNW 6 11 3 6 1009.1 1009.0 0.0
14/08:30am 29.3 34.2 25.3 79 2.8 NW 9 15 5 8 1008.8 1008.7 0.0
14/08:00am 29.1 34.8 25.9 83 2.3 NNW 7 13 4 7 1008.5 1008.4 0.0
14/07:30am 28.4 33.4 26.0 87 1.7 NW 11 17 6 9 1008.3 1008.2 0.0
14/07:00am 28.1 33.4 25.9 88 1.6 NNW 9 15 5 8 1007.9 1007.8 0.0
14/06:30am 28.0 33.4 26.0 89 1.4 NNW 9 17 5 9 1007.8 1007.7 0.0
14/06:00am 28.0 33.9 26.2 90 1.3 NNW 7 13 4 7 1007.5 1007.4 0.0
14/05:30am 27.9 34.3 26.7 93 0.9 NW 6 11 3 6 1007.2 1007.1 0.0
14/05:00am 27.8 35.0 27.3 97 0.4 N 4 7 2 4 1006.8 1006.7 0.0
14/04:30am 27.7 36.0 27.7 100 0.0 CALM 0 2 0 1 1006.5 1006.4 0.0
14/04:00am 27.4 35.4 27.4 100 0.0 CALM 0 4 0 2 1006.5 1006.4 0.0
14/03:30am 27.1 33.8 27.1 100 0.0 N 6 7 3 4 1006.6 1006.5 0.0
14/03:00am 26.7 34.3 26.7 100 0.0 CALM 0 0 0 0 1006.3 1006.2 0.0
14/02:30am 26.9 34.6 26.9 100 0.0 CALM 0 0 0 0 1006.7 1006.6 0.0
14/02:00am 26.9 33.5 26.9 100 0.0 NNW 6 7 3 4 1006.6 1006.5 0.0
14/01:30am 27.2 34.3 27.2 100 0.0 NNW 4 6 2 3 1006.9 1006.8 0.0
14/01:00am 27.2 34.7 27.2 100 0.0 NNW 2 6 1 3 1007.2 1007.1 0.0
14/12:30am 27.6 35.4 27.6 100 0.0 NNW 2 6 1 3 1007.6 1007.5 0.0
14/12:00am 27.6 34.7 27.6 100 0.0 NNW 6 9 3 5 1007.7 1007.6 0.0
 
Date/Time
WST
Temp
°C
App
Temp
°C
Dew
Point
Rel
Hum
%
Delta-T
°C
Wind Press
QNH
hPa
Press
MSL
hPa
Rain
since 9 am
mm
Dir
 
Spd
km/h
Gust
km/h
Spd
kts
Gust
kts
13/11:30pm 27.9 35.8 27.7 99 0.1 NNW 2 6 1 3 1008.1 1008.0 0.0
13/11:00pm 28.0 35.9 27.7 98 0.2 NW 2 4 1 2 1008.6 1008.5 0.0
13/10:30pm 28.2 35.1 27.7 97 0.4 NW 7 11 4 6 1008.5 1008.4 0.0
13/10:00pm 28.2 35.5 28.2 100 0.0 NW 7 9 4 5 1008.4 1008.3 0.0
13/09:30pm 28.3 35.3 28.3 100 0.0 NW 9 15 5 8 1008.3 1008.2 0.0
13/09:00pm 28.5 35.3 28.5 100 0.0 NW 11 19 6 10 1008.2 1008.1 0.0
13/08:30pm 28.8 35.4 28.8 100 0.0 NNW 13 20 7 11 1007.8 1007.7 0.0
13/08:00pm 28.8 36.2 28.8 100 0.0 NNW 9 17 5 9 1007.6 1007.5 0.0
13/07:30pm 29.1 36.2 28.4 96 0.5 NNW 9 19 5 10 1007.3 1007.2 0.0
13/07:00pm 29.4 35.5 27.6 90 1.3 NNW 11 17 6 9 1006.7 1006.6 0.0
13/06:30pm 29.9 34.6 26.7 83 2.3 NNW 15 24 8 13 1006.3 1006.2 0.0
13/06:00pm 30.6 34.8 25.9 76 3.3 NNW 15 24 8 13 1006.0 1005.9 0.0
13/05:30pm 31.6 33.8 24.0 64 5.3 NNW 19 28 10 15 1005.9 1005.8 0.0
13/05:00pm 32.3 34.9 24.6 64 5.4 NNW 19 26 10 14 1005.7 1005.6 0.0
13/04:30pm 33.5 35.7 23.2 54 7.1 NNW 17 26 9 14 1005.9 1005.8 0.0
13/04:00pm 33.6 35.9 24.5 59 6.4 NNW 20 30 11 16 1005.7 1005.6 0.0
13/03:30pm 33.9 36.6 24.8 59 6.4 NNW 19 28 10 15 1006.0 1005.9 0.0
13/03:00pm 32.9 35.7 25.2 64 5.5 N 20 28 11 15 1005.9 1005.8 0.0
13/02:30pm 34.2 37.8 26.1 62 5.8 NNW 19 26 10 14 1006.2 1006.1 0.0
13/02:00pm 34.5 38.3 25.3 58 6.6 NNW 15 26 8 14 1006.5 1006.4 0.0
13/01:30pm 33.8 37.0 25.5 62 5.9 NNW 19 28 10 15 1006.8 1006.7 0.0
13/01:00pm 34.7 37.9 24.3 54 7.3 NNW 15 22 8 12 1006.7 1006.6 0.0
13/12:30pm 34.9 38.6 24.5 54 7.3 NNW 13 19 7 10 1006.8 1006.7 0.0
13/12:00pm 35.0 38.9 24.9 55 7.2 NNW 13 19 7 10 1007.2 1007.1 0.0
13/11:30am 34.2 38.8 25.9 62 5.9 NNW 13 22 7 12 1007.2 1007.1 0.0
13/11:00am 35.1 39.5 25.6 58 6.8 NW 13 19 7 10 1007.3 1007.2 0.0
13/10:30am 34.3 40.0 26.5 64 5.6 NW 9 17 5 9 1007.4 1007.3 0.0
13/10:00am 33.2 39.3 26.5 68 4.8 WNW 7 13 4 7 1007.6 1007.5 0.0
13/09:30am 32.2 38.3 27.0 74 3.8 WNW 9 13 5 7 1007.7 1007.6 0.0
13/09:00am 31.4 40.6 29.9 92 1.1 WNW 4 9 2 5 1008.0 1007.9 0.0
13/08:30am 29.7 39.1 29.7 100 0.0 NE 2 6 1 3 1008.0 1007.9 0.0
13/08:00am 28.5 36.2 28.5 100 0.0 NE 6 9 3 5 1008.0 1007.9 0.0
13/07:30am 27.2 34.0 27.2 100 0.0 NE 6 9 3 5 1008.0 1007.9 0.0
13/07:00am 26.5 32.8 26.5 100 0.0 SE 6 13 3 7 1008.0 1007.9 0.0
13/06:30am 25.8 32.8 25.8 100 0.0 CALM 0 0 0 0 1007.1 1007.0 0.0
13/06:00am 25.6 31.3 25.6 100 0.0 SE 6 6 3 3 1007.2 1007.1 0.0
13/05:30am 25.9 32.2 25.9 100 0.0 SE 4 9 2 5 1006.9 1006.8 0.0
13/05:00am 26.6 34.1 26.6 100 0.0 CALM 0 0 0 0 1006.5 1006.4 0.0
13/04:30am 26.6 33.3 26.6 100 0.0 N 4 6 2 3 1006.8 1006.7 0.0
13/04:00am 26.8 34.4 26.8 100 0.0 CALM 0 2 0 1 1006.5 1006.4 0.0
13/03:30am 26.8 34.1 26.8 100 0.0 N 2 6 1 3 1006.6 1006.5 0.0
13/03:00am 27.1 34.2 27.1 100 0.0 NE 4 7 2 4 1006.6 1006.5 0.0
13/02:30am 27.0 33.6 27.0 100 0.0 N 6 7 3 4 1006.6 1006.5 0.0
13/02:00am 27.2 34.3 27.2 100 0.0 N 4 6 2 3 1006.7 1006.6 0.0
13/01:30am 27.4 34.3 27.4 100 0.0 NNE 6 9 3 5 1007.1 1007.0 0.0
13/01:00am 27.6 35.4 27.6 100 0.0 NW 2 9 1 5 1007.3 1007.2 0.0
13/12:30am 27.4 34.7 27.4 100 0.0 NW 4 6 2 3 1007.3 1007.2 0.0
13/12:00am 27.6 35.8 27.6 100 0.0 CALM 0 2 0 1 1007.8 1007.7 0.0
 
Date/Time
WST
Temp
°C
App
Temp
°C
Dew
Point
Rel
Hum
%
Delta-T
°C
Wind Press
QNH
hPa
Press
MSL
hPa
Rain
since 9 am
mm
Dir
 
Spd
km/h
Gust
km/h
Spd
kts
Gust
kts
12/11:30pm 28.1 36.3 28.1 100 0.0 WNW 2 6 1 3 1007.7 1007.6 0.0
12/11:00pm 28.6 37.5 28.6 100 0.0 CALM 0 4 0 2 1008.1 1008.0 0.0
12/10:30pm 29.0 37.8 29.0 100 0.0 W 2 2 1 1 1007.7 1007.6 0.0
12/10:00pm 29.3 38.8 29.3 100 0.0 CALM 0 0 0 0 1007.9 1007.8 0.0
12/09:30pm 29.3 37.6 29.3 100 0.0 W 6 7 3 4 1007.6 1007.5 0.0
12/09:00pm 29.7 38.3 29.7 100 0.0 NW 6 9 3 5 1007.5 1007.4 0.0
12/08:30pm 29.9 38.0 29.0 95 0.7 W 6 9 3 5 1007.2 1007.1 0.0
12/08:00pm 30.4 37.8 28.8 91 1.2 W 9 17 5 9 1006.6 1006.5 0.0
12/07:30pm 30.6 35.9 27.6 84 2.2 W 15 22 8 12 1006.3 1006.2 0.0
12/07:00pm 31.3 35.1 25.9 73 3.9 WNW 17 26 9 14 1005.9 1005.8 0.0
12/06:30pm 32.8 36.4 25.6 66 5.1 WNW 17 22 9 12 1005.5 1005.4 0.0
12/06:00pm 34.9 36.5 23.2 50 8.1 WNW 20 28 11 15 1005.4 1005.3 0.0
12/05:30pm 35.4 37.8 23.7 50 8.2 NW 17 22 9 12 1004.9 1004.8 0.0
12/05:00pm 37.2 37.7 20.1 37 11.5 NW 17 24 9 13 1004.8 1004.7 0.0
12/04:30pm 37.5 38.2 21.6 39 10.9 NW 20 26 11 14 1004.6 1004.5 0.0
12/04:00pm 39.8 39.0 18.4 28 14.2 NW 20 26 11 14 1004.5 1004.4 0.0
12/03:30pm 40.2 39.4 19.3 29 14.0 WNW 22 30 12 16 1004.5 1004.4 0.0
12/03:00pm 42.1 39.1 13.7 19 17.8 NW 22 32 12 17 1004.6 1004.5 0.0
12/02:30pm 42.8 39.2 10.7 15 19.4 NW 20 30 11 16 1005.0 1004.9 0.0
12/02:00pm 41.9 40.7 18.4 25 15.7 NW 22 28 12 15 1005.1 1005.0 0.0
12/01:45pm 41.5 40.6 19.8 28 14.7 NNW 24 33 13 18 1005.2 1005.1 0.0
12/01:30pm 46.6 42.6 0.3 6 24.6 ENE 11 30 6 16 1004.9 1004.8 0.0
12/01:00pm 45.5 42.6 1.7 7 23.6 WSW 6 17 3 9 1005.2 1005.1 0.0
12/12:30pm 45.9 41.4 -0.2 6 24.2 ENE 13 28 7 15 1005.9 1005.8 0.0
12/12:00pm 45.1 41.9 3.2 8 23.0 NE 9 15 5 8 1006.0 1005.9 0.0
12/11:30am 44.7 41.1 2.9 8 22.8 SSW 11 19 6 10 1006.6 1006.5 0.0
12/11:00am 43.7 40.2 5.4 10 21.6 SSW 13 20 7 11 1007.0 1006.9 0.0
12/10:30am 42.4 38.6 5.8 11 20.6 SSW 15 22 8 12 1007.3 1007.2 0.0
12/10:00am 41.5 39.2 10.6 16 18.5 SW 13 19 7 10 1007.6 1007.5 0.0
12/09:30am 39.7 39.7 15.3 23 15.5 SSW 9 15 5 8 1007.9 1007.8 0.0
12/09:00am 37.1 38.6 18.1 32 12.4 SSW 7 11 4 6 1008.0 1007.9 0.0
12/08:30am 34.5 37.8 20.8 44 9.2 SSW 4 6 2 3 1008.0 1007.9 0.0
12/08:00am 31.4 36.8 24.5 67 4.8 SSW 4 7 2 4 1008.1 1008.0 0.0
12/07:30am 29.1 35.3 26.3 85 2.0 SSW 6 9 3 5 1008.1 1008.0 0.0
12/07:00am 27.1 33.8 27.1 100 0.0 SSW 6 9 3 5 1008.0 1007.9 0.0
12/06:30am 25.5 30.9 25.5 100 0.0 SSW 7 9 4 5 1007.8 1007.7 0.0
12/06:00am 25.3 31.6 25.3 100 0.0 SE 2 7 1 4 1007.8 1007.7 0.0
12/05:30am 25.4 31.3 25.4 100 0.0 SE 4 6 2 3 1007.6 1007.5 0.0
12/05:00am 25.6 31.3 25.6 100 0.0 SSW 6 9 3 5 1007.5 1007.4 0.0
12/04:30am 26.2 33.4 26.2 100 0.0 CALM 0 0 0 0 1007.3 1007.2 0.0
12/04:00am 26.4 33.8 26.4 100 0.0 CALM 0 4 0 2 1007.3 1007.2 0.0
12/03:30am 26.4 33.4 26.4 100 0.0 SW 2 7 1 4 1007.1 1007.0 0.0
12/03:00am 26.7 32.9 25.8 95 0.6 SW 4 7 2 4 1007.2 1007.1 0.0
12/02:30am 26.9 32.4 25.3 91 1.1 SW 6 7 3 4 1007.2 1007.1 0.0
12/02:00am 27.2 34.2 25.8 92 1.0 CALM 0 0 0 0 1007.6 1007.5 0.0
12/01:30am 27.1 32.6 25.3 90 1.3 SW 6 6 3 3 1007.6 1007.5 0.0
12/01:00am 27.3 33.5 24.6 85 1.9 CALM 0 0 0 0 1007.8 1007.7 0.0
12/12:30am 28.6 35.2 25.2 82 2.4 CALM 0 0 0 0 1008.1 1008.0 0.0
12/12:00am 28.6 34.7 25.0 81 2.5 SW 2 6 1 3 1008.3 1008.2 0.0
 
Date/Time
WST
Temp
°C
App
Temp
°C
Dew
Point
Rel
Hum
%
Delta-T
°C
Wind Press
QNH
hPa
Press
MSL
hPa
Rain
since 9 am
mm
Dir
 
Spd
km/h
Gust
km/h
Spd
kts
Gust
kts
11/11:30pm 28.9 34.8 25.3 81 2.5 SW 4 6 2 3 1008.3 1008.2 0.0
11/11:00pm 29.2 34.9 25.0 78 3.0 SW 4 9 2 5 1008.6 1008.5 0.0
11/10:30pm 29.3 34.5 25.1 78 3.0 SW 7 11 4 6 1008.5 1008.4 0.0
11/10:00pm 29.7 34.4 25.0 76 3.3 WSW 9 11 5 6 1008.3 1008.2 0.0
11/09:30pm 30.0 35.1 24.9 74 3.6 W 7 9 4 5 1008.1 1008.0 0.0
11/09:00pm 30.5 35.6 24.9 72 3.9 W 7 9 4 5 1008.0 1007.9 0.0
11/08:30pm 31.0 35.7 24.9 70 4.3 WSW 9 11 5 6 1007.9 1007.8 0.0
11/08:00pm 31.4 36.0 25.3 70 4.3 WSW 11 17 6 9 1007.5 1007.4 0.0
11/07:30pm 32.2 36.6 25.0 65 5.1 W 11 17 6 9 1007.1 1007.0 0.0
11/07:00pm 33.5 36.2 22.9 53 7.3 W 13 20 7 11 1006.6 1006.5 0.0
11/06:30pm 35.1 36.1 21.0 43 9.5 W 17 20 9 11 1006.2 1006.1 0.0
11/06:00pm 36.4 37.4 21.0 40 10.5 WNW 17 24 9 13 1005.9 1005.8 0.0
11/05:30pm 38.9 37.7 17.1 28 14.1 WNW 19 24 10 13 1005.5 1005.4 0.0
11/05:00pm 40.6 38.3 14.7 21 16.4 WNW 20 28 11 15 1005.3 1005.2 0.0
11/04:30pm 41.1 38.2 12.9 19 17.4 WNW 20 28 11 15 1005.1 1005.0 0.0
11/04:00pm 42.4 38.4 10.3 15 19.3 WNW 22 28 12 15 1005.1 1005.0 0.0
11/03:30pm 43.1 38.7 8.8 13 20.2 WNW 22 28 12 15 1005.3 1005.2 0.0
11/03:00pm 42.3 38.5 11.2 16 18.9 WNW 22 32 12 17 1005.3 1005.2 0.0
11/02:30pm 43.8 39.6 8.1 12 20.8 NW 20 32 11 17 1005.6 1005.5 0.0
11/02:00pm 42.9 38.6 10.7 15 19.5 NW 24 32 13 17 1005.7 1005.6 0.0

Other Formats:

Comma delimited format used in spreadsheet applications
http://www.bom.gov.au/fwo/IDW60801/IDW60801.94306.axf

JavaScript Object Notation format (JSON) in row-major order
http://www.bom.gov.au/fwo/IDW60801/IDW60801.94306.json